Time;durP1;ratioP1;P1;durP2;ratioP2;P2;SDS_P1;SDS_P2;PMS_P1;PMS_P2;Temp;Humidity;BMP_temperature;BMP_pressure;BME280_temperature;BME280_humidity;BME280_pressure;Samples;Min_cycle;Max_cycle;Signal;HPM_P1;HPM_P2
2023/03/13 00:00:29;;;;;;;15.95;10.10;;;;;;;;;;4996116;28;20047;-58
2023/03/13 00:02:57;;;;;;;16.10;10.25;;;;;;;;;;4996135;28;20074;-59
2023/03/13 00:05:24;;;;;;;16.58;10.35;;;;;;;;;;4996040;28;20050;-59
2023/03/13 00:07:52;;;;;;;21.42;12.98;;;;;;;;;;4996185;28;20122;-59
2023/03/13 00:10:19;;;;;;;22.15;12.73;;;;;;;;;;4996015;28;20061;-59
2023/03/13 00:12:47;;;;;;;15.73;10.10;;;;;;;;;;4995995;28;20050;-60
2023/03/13 00:15:14;;;;;;;16.92;10.05;;;;;;;;;;4995997;28;20112;-59
2023/03/13 00:17:42;;;;;;;17.15;10.02;;;;;;;;;;4995846;28;20076;-59
2023/03/13 00:20:10;;;;;;;17.90;11.07;;;;;;;;;;4995718;28;20063;-60
2023/03/13 00:22:37;;;;;;;16.92;10.48;;;;;;;;;;4995750;28;20043;-59
2023/03/13 00:25:04;;;;;;;13.15;9.43;;;;;;;;;;4995646;28;20051;-59
2023/03/13 00:27:33;;;;;;;15.85;10.13;;;;;;;;;;4995614;28;20066;-59
2023/03/13 00:30:00;;;;;;;15.85;9.90;;;;;;;;;;4978190;28;20448;-59
2023/03/13 00:32:28;;;;;;;16.48;10.18;;;;;;;;;;4977858;28;20077;-59
2023/03/13 00:34:56;;;;;;;15.52;10.05;;;;;;;;;;4995506;28;20113;-59
2023/03/13 00:37:24;;;;;;;14.63;10.27;;;;;;;;;;4995572;28;20048;-59
2023/03/13 00:39:53;;;;;;;15.63;9.68;;;;;;;;;;4977926;28;20104;-60
2023/03/13 00:42:22;;;;;;;16.55;10.15;;;;;;;;;;4977999;28;20058;-59
2023/03/13 00:44:49;;;;;;;16.65;9.57;;;;;;;;;;4977821;28;20049;-59
2023/03/13 00:47:16;;;;;;;15.57;9.70;;;;;;;;;;4977973;28;20389;-59
2023/03/13 00:49:44;;;;;;;19.52;10.52;;;;;;;;;;4995250;28;20047;-60
2023/03/13 00:52:12;;;;;;;17.20;10.32;;;;;;;;;;4977771;28;20134;-59
2023/03/13 00:54:40;;;;;;;16.23;9.85;;;;;;;;;;4977891;28;20134;-59
2023/03/13 00:57:07;;;;;;;17.17;10.70;;;;;;;;;;4977722;28;20495;-60
2023/03/13 00:59:35;;;;;;;15.07;10.02;;;;;;;;;;4977596;28;20457;-60
2023/03/13 01:02:02;;;;;;;15.60;10.55;;;;;;;;;;4977648;28;20045;-59
2023/03/13 01:04:31;;;;;;;14.65;9.73;;;;;;;;;;4977620;28;20054;-60
2023/03/13 01:06:59;;;;;;;16.42;10.70;;;;;;;;;;4977659;28;20038;-59
2023/03/13 01:09:27;;;;;;;15.32;10.82;;;;;;;;;;4977563;28;20477;-59
2023/03/13 01:11:54;;;;;;;15.32;9.77;;;;;;;;;;4995007;28;20038;-59
2023/03/13 01:14:22;;;;;;;15.02;10.60;;;;;;;;;;4994896;28;20073;-60
2023/03/13 01:16:50;;;;;;;14.80;9.60;;;;;;;;;;4994706;28;20396;-60
2023/03/13 01:19:17;;;;;;;16.38;10.00;;;;;;;;;;4977123;28;20054;-60
2023/03/13 01:21:45;;;;;;;15.18;10.02;;;;;;;;;;4977149;28;20145;-59
2023/03/13 01:24:14;;;;;;;17.08;10.85;;;;;;;;;;4977283;28;20133;-60
2023/03/13 01:26:43;;;;;;;19.27;10.88;;;;;;;;;;4977139;28;20034;-60
2023/03/13 01:29:10;;;;;;;15.57;10.35;;;;;;;;;;4961221;28;20046;-59
2023/03/13 01:31:38;;;;;;;17.38;10.45;;;;;;;;;;4977052;28;20141;-59
2023/03/13 01:34:07;;;;;;;16.83;11.43;;;;;;;;;;4976939;28;20051;-60
2023/03/13 01:36:36;;;;;;;15.82;10.85;;;;;;;;;;4976935;28;20457;-60
2023/03/13 01:39:04;;;;;;;18.20;11.85;;;;;;;;;;4976805;28;20101;-60
2023/03/13 01:41:32;;;;;;;22.50;12.05;;;;;;;;;;4976971;28;20046;-59
2023/03/13 01:43:59;;;;;;;17.95;11.77;;;;;;;;;;4993653;28;20543;-59
2023/03/13 01:46:35;;;;;;;16.85;10.95;;;;;;;;;;4976859;28;20053;-60
2023/03/13 01:49:28;;;;;;;18.23;11.55;;;;;;;;;;4994148;28;20136;-60
2023/03/13 01:52:14;;;;;;;16.90;11.93;;;;;;;;;;4994106;28;20117;-59
2023/03/13 01:55:07;;;;;;;17.58;11.55;;;;;;;;;;4976664;28;20436;-60
2023/03/13 01:57:39;;;;;;;20.30;11.88;;;;;;;;;;4976622;28;20049;-59
2023/03/13 02:00:11;;;;;;;17.48;12.15;;;;;;;;;;4976400;28;20058;-60
2023/03/13 02:02:44;;;;;;;20.02;11.73;;;;;;;;;;4966492;28;20051;-60
2023/03/13 02:05:12;;;;;;;18.85;12.73;;;;;;;;;;4973810;28;20046;-60
2023/03/13 02:07:45;;;;;;;20.08;12.20;;;;;;;;;;4993878;28;20096;-60
2023/03/13 02:10:14;;;;;;;19.85;12.68;;;;;;;;;;4976474;28;20046;-60
2023/03/13 02:12:42;;;;;;;20.27;13.13;;;;;;;;;;4976360;28;20045;-59
2023/03/13 02:15:12;;;;;;;21.42;12.25;;;;;;;;;;4976258;28;20500;-60
2023/03/13 02:17:41;;;;;;;20.08;12.93;;;;;;;;;;4976202;28;20054;-60
2023/03/13 02:20:09;;;;;;;19.70;12.82;;;;;;;;;;4976008;28;20066;-60
2023/03/13 02:22:52;;;;;;;22.58;13.90;;;;;;;;;;4976197;28;20046;-60
2023/03/13 02:25:38;;;;;;;19.50;13.55;;;;;;;;;;4976165;28;20134;-60
2023/03/13 02:28:06;;;;;;;25.73;15.23;;;;;;;;;;4976004;28;20101;-59
2023/03/13 02:30:35;;;;;;;27.80;17.80;;;;;;;;;;4976100;28;20583;-60
2023/03/13 02:33:04;;;;;;;29.10;17.88;;;;;;;;;;4975882;28;20133;-60
2023/03/13 02:35:35;;;;;;;26.38;16.58;;;;;;;;;;4975957;28;20038;-59
2023/03/13 02:38:10;;;;;;;27.00;16.75;;;;;;;;;;4975925;28;20055;-60
2023/03/13 02:40:39;;;;;;;27.92;15.65;;;;;;;;;;4975959;28;20093;-60
2023/03/13 02:43:10;;;;;;;24.92;16.40;;;;;;;;;;4975941;28;20088;-60
2023/03/13 02:45:39;;;;;;;29.15;15.85;;;;;;;;;;4965462;28;20057;-60
2023/03/13 02:48:09;;;;;;;30.83;17.80;;;;;;;;;;4972775;28;20039;-59
2023/03/13 02:50:37;;;;;;;30.45;17.67;;;;;;;;;;4975798;28;20050;-60
2023/03/13 02:53:07;;;;;;;27.58;17.05;;;;;;;;;;4993203;28;20534;-60
2023/03/13 02:55:36;;;;;;;30.52;17.05;;;;;;;;;;4975628;28;20047;-60
2023/03/13 02:58:04;;;;;;;27.08;16.13;;;;;;;;;;4975708;28;20436;-60
2023/03/13 03:00:35;;;;;;;25.55;15.57;;;;;;;;;;4975650;28;20046;-60
2023/03/13 03:03:02;;;;;;;20.70;13.90;;;;;;;;;;4993198;28;20058;-60
2023/03/13 03:05:30;;;;;;;22.60;13.68;;;;;;;;;;4993165;28;20497;-60
2023/03/13 03:07:58;;;;;;;21.55;13.32;;;;;;;;;;4975940;28;20133;-60
2023/03/13 03:10:28;;;;;;;20.25;13.57;;;;;;;;;;4975734;28;20057;-60
2023/03/13 03:12:55;;;;;;;20.80;13.15;;;;;;;;;;4975609;28;20046;-59
2023/03/13 03:15:23;;;;;;;18.90;11.90;;;;;;;;;;4975691;28;20038;-60
2023/03/13 03:17:51;;;;;;;22.73;13.82;;;;;;;;;;4975448;28;20042;-59
2023/03/13 03:20:19;;;;;;;19.60;12.15;;;;;;;;;;4975366;28;20452;-59
2023/03/13 03:22:47;;;;;;;18.42;12.15;;;;;;;;;;4976304;28;20070;-59
2023/03/13 03:25:14;;;;;;;19.40;12.35;;;;;;;;;;4975664;28;20130;-58
2023/03/13 03:27:42;;;;;;;17.38;11.40;;;;;;;;;;4975456;28;20492;-58
2023/03/13 03:30:10;;;;;;;16.77;11.00;;;;;;;;;;4975579;28;20133;-58
2023/03/13 03:32:38;;;;;;;14.93;10.82;;;;;;;;;;4975355;28;20050;-59
2023/03/13 03:35:06;;;;;;;17.92;10.85;;;;;;;;;;4975450;28;20528;-58
2023/03/13 03:37:33;;;;;;;17.08;11.30;;;;;;;;;;4975252;28;20039;-59
2023/03/13 03:40:05;;;;;;;14.85;10.45;;;;;;;;;;4975358;28;20035;-58
2023/03/13 03:42:33;;;;;;;14.75;10.55;;;;;;;;;;4975188;28;20038;-58
2023/03/13 03:45:01;;;;;;;18.08;10.73;;;;;;;;;;4975273;28;20046;-59
2023/03/13 03:47:28;;;;;;;15.27;10.70;;;;;;;;;;4975288;28;20053;-58
2023/03/13 03:49:56;;;;;;;13.32;9.75;;;;;;;;;;4975076;28;20038;-58
2023/03/13 03:52:24;;;;;;;16.08;10.60;;;;;;;;;;4975175;28;20050;-58
2023/03/13 03:54:51;;;;;;;15.85;10.90;;;;;;;;;;4975238;28;20097;-58
2023/03/13 03:57:20;;;;;;;17.85;11.15;;;;;;;;;;4974992;28;20054;-59
2023/03/13 03:59:48;;;;;;;19.67;12.30;;;;;;;;;;4975035;28;20122;-59
2023/03/13 04:02:16;;;;;;;17.52;11.43;;;;;;;;;;4975098;28;20100;-58
2023/03/13 04:04:44;;;;;;;17.02;11.30;;;;;;;;;;4992462;28;20073;-58
2023/03/13 04:07:26;;;;;;;21.02;11.85;;;;;;;;;;4975567;28;20146;-58
2023/03/13 04:09:53;;;;;;;17.58;11.82;;;;;;;;;;4978516;28;20076;-58
2023/03/13 04:12:27;;;;;;;17.92;11.85;;;;;;;;;;4978426;28;20137;-58
2023/03/13 04:14:56;;;;;;;17.52;11.73;;;;;;;;;;4978505;28;20100;-58
2023/03/13 04:17:24;;;;;;;17.33;11.18;;;;;;;;;;4978311;28;20066;-58
2023/03/13 04:19:51;;;;;;;17.70;11.38;;;;;;;;;;4978129;28;20065;-58
2023/03/13 04:22:19;;;;;;;16.95;10.98;;;;;;;;;;4978308;28;20580;-59
2023/03/13 04:24:51;;;;;;;15.73;10.90;;;;;;;;;;4995780;28;20039;-58
2023/03/13 04:27:20;;;;;;;16.30;12.02;;;;;;;;;;4978195;28;20105;-58
2023/03/13 04:29:49;;;;;;;17.58;10.65;;;;;;;;;;4995628;28;20038;-59
2023/03/13 04:32:35;;;;;;;17.83;10.88;;;;;;;;;;4995919;28;20116;-58
2023/03/13 04:35:18;;;;;;;16.27;10.95;;;;;;;;;;4995559;28;20038;-58
2023/03/13 04:38:03;;;;;;;;;;;;;;;;;;4959186;28;20058;-58
2023/03/13 04:40:54;;;;;;;19.77;11.75;;;;;;;;;;4965305;28;20008;-59
2023/03/13 04:43:57;;;;;;;17.00;10.63;;;;;;;;;;4965430;28;20089;-58
2023/03/13 04:46:53;;;;;;;17.92;10.75;;;;;;;;;;4953265;28;20124;-60
2023/03/13 04:49:44;;;;;;;16.20;11.55;;;;;;;;;;4958470;28;20062;-60
2023/03/13 04:52:34;;;;;;;16.02;11.73;;;;;;;;;;4994122;28;20042;-61
2023/03/13 04:55:28;;;;;;;17.10;11.00;;;;;;;;;;4986973;28;20239;-58
2023/03/13 04:58:19;;;;;;;18.65;11.90;;;;;;;;;;4977712;28;20137;-60
2023/03/13 05:01:09;;;;;;;15.75;11.00;;;;;;;;;;4994539;28;20404;-60
2023/03/13 05:04:04;;;;;;;18.42;11.27;;;;;;;;;;4968601;28;20516;-58
2023/03/13 05:06:51;;;;;;;19.02;13.45;;;;;;;;;;4964609;28;20085;-59
2023/03/13 05:09:39;;;;;;;22.20;14.73;;;;;;;;;;4994537;28;20412;-59
2023/03/13 05:12:29;;;;;;;23.33;14.30;;;;;;;;;;4994289;28;20061;-59
2023/03/13 05:15:04;;;;;;;21.27;12.45;;;;;;;;;;4993714;28;20419;-59
2023/03/13 05:17:41;;;;;;;16.20;12.35;;;;;;;;;;4973396;28;20544;-60
2023/03/13 05:20:31;;;;;;;14.48;10.68;;;;;;;;;;4984968;28;20086;-59
2023/03/13 05:23:10;;;;;;;15.88;11.70;;;;;;;;;;4993419;28;20101;-59
2023/03/13 05:25:57;;;;;;;15.05;10.82;;;;;;;;;;4994803;28;20077;-59
2023/03/13 05:28:30;;;;;;;16.80;10.75;;;;;;;;;;4994770;28;20489;-60
2023/03/13 05:31:13;;;;;;;18.25;10.80;;;;;;;;;;4993001;28;20046;-59
2023/03/13 05:34:04;;;;;;;16.65;10.52;;;;;;;;;;4993216;28;20137;-59
2023/03/13 05:36:54;;;;;;;20.42;11.18;;;;;;;;;;4986171;28;20058;-60
2023/03/13 05:39:53;;;;;;;15.27;9.60;;;;;;;;;;4976666;28;20108;-59
2023/03/13 05:42:44;;;;;;;12.40;9.43;;;;;;;;;;4979769;28;20136;-60
2023/03/13 05:45:26;;;;;;;13.60;9.43;;;;;;;;;;4976571;28;20145;-60
2023/03/13 05:47:54;;;;;;;14.25;10.20;;;;;;;;;;4994398;28;20054;-60
2023/03/13 05:50:56;;;;;;;16.58;10.23;;;;;;;;;;4993665;28;20062;-59
2023/03/13 05:53:33;;;;;;;11.88;9.38;;;;;;;;;;4994334;28;20046;-60
2023/03/13 05:56:03;;;;;;;14.23;10.07;;;;;;;;;;4994298;28;20047;-60
2023/03/13 05:59:00;;;;;;;17.13;10.50;;;;;;;;;;4989046;28;20456;-58
2023/03/13 06:01:46;;;;;;;17.58;10.50;;;;;;;;;;4993731;28;20053;-59
2023/03/13 06:04:23;;;;;;;12.82;9.90;;;;;;;;;;4992521;28;20385;-59
2023/03/13 06:06:51;;;;;;;12.18;9.40;;;;;;;;;;4976316;28;20049;-59
2023/03/13 06:09:19;;;;;;;11.98;9.15;;;;;;;;;;4976474;28;20046;-59
2023/03/13 06:11:48;;;;;;;13.43;9.68;;;;;;;;;;4976426;28;20050;-60
2023/03/13 06:14:15;;;;;;;11.77;9.10;;;;;;;;;;4992836;28;20454;-60
2023/03/13 06:16:54;;;;;;;15.07;10.15;;;;;;;;;;4976352;28;20042;-60
2023/03/13 06:19:23;;;;;;;14.27;10.50;;;;;;;;;;4976237;28;20054;-60
2023/03/13 06:21:51;;;;;;;14.20;9.95;;;;;;;;;;4993674;28;20042;-60
2023/03/13 06:24:18;;;;;;;13.70;9.15;;;;;;;;;;4976333;28;20488;-60
2023/03/13 06:26:48;;;;;;;13.20;9.45;;;;;;;;;;4993645;28;20043;-60
2023/03/13 06:29:16;;;;;;;10.10;8.85;;;;;;;;;;4993657;28;20038;-61
2023/03/13 06:31:43;;;;;;;9.43;8.43;;;;;;;;;;4993383;28;20042;-61
2023/03/13 06:34:12;;;;;;;10.38;8.63;;;;;;;;;;4993482;28;20038;-61
2023/03/13 06:36:39;;;;;;;10.63;8.15;;;;;;;;;;4993554;28;20069;-61
2023/03/13 06:39:07;;;;;;;9.00;8.10;;;;;;;;;;4993502;28;20129;-61
2023/03/13 06:41:35;;;;;;;10.13;7.95;;;;;;;;;;4993515;28;20046;-59
2023/03/13 06:44:02;;;;;;;9.13;7.50;;;;;;;;;;4993326;28;20042;-61
2023/03/13 06:46:30;;;;;;;8.73;7.65;;;;;;;;;;4976244;28;20042;-60
2023/03/13 06:48:59;;;;;;;9.75;7.20;;;;;;;;;;4993241;28;20050;-61
2023/03/13 06:51:27;;;;;;;8.80;7.90;;;;;;;;;;4993323;28;20064;-61
2023/03/13 06:53:54;;;;;;;8.98;7.95;;;;;;;;;;4993266;28;20045;-60
2023/03/13 06:56:22;;;;;;;8.10;7.30;;;;;;;;;;4991877;28;20440;-60
2023/03/13 06:58:49;;;;;;;8.10;7.15;;;;;;;;;;4993138;28;20077;-60
2023/03/13 07:01:17;;;;;;;7.53;6.82;;;;;;;;;;4993020;28;20065;-60
2023/03/13 07:03:46;;;;;;;8.98;8.13;;;;;;;;;;4993051;28;20047;-60
2023/03/13 07:06:14;;;;;;;13.07;8.98;;;;;;;;;;4993019;28;20070;-60
2023/03/13 07:08:43;;;;;;;8.30;7.53;;;;;;;;;;4975614;28;20065;-60
2023/03/13 07:11:11;;;;;;;8.43;7.47;;;;;;;;;;4993015;28;20049;-61
2023/03/13 07:13:39;;;;;;;11.63;7.50;;;;;;;;;;4992011;28;20141;-60
2023/03/13 07:16:08;;;;;;;9.05;7.95;;;;;;;;;;4993372;28;20054;-61
2023/03/13 07:18:37;;;;;;;9.43;7.10;;;;;;;;;;4993114;28;20046;-61
2023/03/13 07:21:05;;;;;;;7.90;7.10;;;;;;;;;;4992746;28;20054;-61
2023/03/13 07:23:33;;;;;;;8.80;7.60;;;;;;;;;;4992973;28;20126;-61
2023/03/13 07:26:05;;;;;;;7.90;7.20;;;;;;;;;;4992909;28;20042;-60
2023/03/13 07:28:32;;;;;;;8.18;7.28;;;;;;;;;;4993095;28;20149;-61
2023/03/13 07:31:03;;;;;;;7.70;7.00;;;;;;;;;;4993031;28;20053;-61
2023/03/13 07:33:31;;;;;;;8.25;7.38;;;;;;;;;;4993044;28;20096;-60
2023/03/13 07:35:58;;;;;;;9.73;8.02;;;;;;;;;;4992756;28;20066;-59
2023/03/13 07:38:26;;;;;;;10.30;8.55;;;;;;;;;;4992765;28;20392;-61
2023/03/13 07:40:55;;;;;;;11.25;8.43;;;;;;;;;;4992687;28;20065;-59
2023/03/13 07:43:23;;;;;;;9.68;8.63;;;;;;;;;;4993450;28;20511;-59
2023/03/13 07:45:51;;;;;;;11.43;8.82;;;;;;;;;;4996511;28;20043;-59
2023/03/13 07:48:19;;;;;;;13.13;9.43;;;;;;;;;;4995393;28;20408;-59
2023/03/13 07:50:47;;;;;;;14.60;9.45;;;;;;;;;;4996316;28;20042;-60
2023/03/13 07:53:19;;;;;;;17.08;9.50;;;;;;;;;;4996331;28;20038;-60
2023/03/13 07:55:53;;;;;;;14.15;8.98;;;;;;;;;;4996258;28;20574;-60
2023/03/13 07:58:20;;;;;;;12.32;8.70;;;;;;;;;;4996277;28;20514;-60
2023/03/13 08:00:48;;;;;;;11.18;8.70;;;;;;;;;;4996196;28;20133;-60
2023/03/13 08:03:15;;;;;;;11.02;8.90;;;;;;;;;;4996224;28;20038;-60
2023/03/13 08:05:43;;;;;;;13.93;8.55;;;;;;;;;;4996247;28;20062;-60
2023/03/13 08:08:11;;;;;;;10.07;7.10;;;;;;;;;;4996100;28;20038;-60
2023/03/13 08:10:38;;;;;;;10.30;7.90;;;;;;;;;;4995893;28;20031;-60
2023/03/13 08:13:06;;;;;;;13.25;7.80;;;;;;;;;;4996057;28;20042;-60
2023/03/13 08:15:33;;;;;;;11.52;8.35;;;;;;;;;;4995866;28;20054;-60
2023/03/13 08:18:01;;;;;;;9.05;7.25;;;;;;;;;;4995884;28;20515;-60
2023/03/13 08:20:28;;;;;;;15.10;7.50;;;;;;;;;;4995743;28;20054;-60
2023/03/13 08:22:56;;;;;;;9.40;7.68;;;;;;;;;;4995876;28;20046;-60
2023/03/13 08:25:24;;;;;;;18.10;7.85;;;;;;;;;;4995706;28;20116;-60
2023/03/13 08:27:51;;;;;;;9.52;8.05;;;;;;;;;;4995719;28;20050;-60
2023/03/13 08:30:19;;;;;;;10.05;7.70;;;;;;;;;;4995574;28;20403;-60
2023/03/13 08:32:46;;;;;;;10.60;8.60;;;;;;;;;;4995994;28;20376;-60
2023/03/13 08:35:14;;;;;;;10.77;7.80;;;;;;;;;;4995662;28;20035;-61
2023/03/13 08:37:42;;;;;;;12.85;7.68;;;;;;;;;;4995638;28;20072;-61
2023/03/13 08:40:10;;;;;;;11.68;8.13;;;;;;;;;;4978072;28;20451;-60
2023/03/13 08:42:39;;;;;;;13.55;8.73;;;;;;;;;;4995704;28;20417;-60
2023/03/13 08:45:07;;;;;;;11.73;7.90;;;;;;;;;;4995488;28;20646;-60
2023/03/13 08:47:34;;;;;;;11.48;7.80;;;;;;;;;;4995379;28;20563;-60
2023/03/13 08:50:02;;;;;;;9.20;7.90;;;;;;;;;;4995326;28;20377;-60
2023/03/13 08:52:30;;;;;;;13.30;8.88;;;;;;;;;;4995641;28;20046;-60
2023/03/13 08:54:57;;;;;;;9.80;7.40;;;;;;;;;;4977498;28;20104;-60
2023/03/13 08:57:25;;;;;;;11.18;7.45;;;;;;;;;;4995111;28;20042;-60
2023/03/13 08:59:52;;;;;;;10.23;7.32;;;;;;;;;;4995149;28;20066;-60
2023/03/13 09:02:20;;;;;;;7.90;6.97;;;;;;;;;;4995031;28;20042;-60
2023/03/13 09:04:47;;;;;;;10.05;7.00;;;;;;;;;;4995026;28;20038;-60
2023/03/13 09:07:15;;;;;;;8.82;7.53;;;;;;;;;;4995010;28;20057;-60
2023/03/13 09:09:43;;;;;;;8.80;7.05;;;;;;;;;;4994830;28;20039;-60
2023/03/13 09:12:10;;;;;;;8.45;6.63;;;;;;;;;;4995248;28;20073;-60
2023/03/13 09:14:56;;;;;;;8.48;6.93;;;;;;;;;;4994877;28;20062;-60
2023/03/13 09:17:24;;;;;;;7.95;6.50;;;;;;;;;;4994736;28;20524;-63
2023/03/13 09:19:52;;;;;;;10.50;7.05;;;;;;;;;;4994683;28;20078;-60
2023/03/13 09:22:26;;;;;;;11.00;6.70;;;;;;;;;;4994650;28;20038;-60
2023/03/13 09:24:54;;;;;;;8.70;6.60;;;;;;;;;;4994668;28;20042;-59
2023/03/13 09:27:21;;;;;;;8.15;6.90;;;;;;;;;;4994568;28;20122;-59
2023/03/13 09:29:49;;;;;;;8.60;7.20;;;;;;;;;;4994610;28;20066;-60
2023/03/13 09:32:19;;;;;;;9.70;6.97;;;;;;;;;;4993368;28;20125;-59
2023/03/13 09:34:47;;;;;;;9.75;7.20;;;;;;;;;;4994497;28;20465;-59
2023/03/13 09:37:14;;;;;;;8.18;6.25;;;;;;;;;;4994503;28;20046;-60
2023/03/13 09:39:42;;;;;;;12.52;6.78;;;;;;;;;;4994387;28;20121;-59
2023/03/13 09:42:15;;;;;;;10.38;7.35;;;;;;;;;;4994341;28;20038;-59
2023/03/13 09:44:55;;;;;;;8.25;6.85;;;;;;;;;;4976938;28;20050;-59
2023/03/13 09:47:29;;;;;;;8.07;6.50;;;;;;;;;;4994276;28;20061;-59
2023/03/13 09:50:00;;;;;;;12.55;6.90;;;;;;;;;;4994227;28;20125;-59
2023/03/13 09:52:35;;;;;;;7.68;6.22;;;;;;;;;;4994238;28;20042;-59
2023/03/13 09:55:05;;;;;;;9.10;6.38;;;;;;;;;;4994127;28;20050;-59
2023/03/13 09:57:36;;;;;;;7.95;5.82;;;;;;;;;;4994062;28;20043;-59
2023/03/13 10:00:05;;;;;;;7.95;6.47;;;;;;;;;;4993980;28;20058;-60
2023/03/13 10:02:37;;;;;;;8.88;6.45;;;;;;;;;;4993853;28;20043;-59
2023/03/13 10:05:07;;;;;;;11.63;6.45;;;;;;;;;;4993428;28;20076;-59
2023/03/13 10:07:35;;;;;;;9.20;6.32;;;;;;;;;;4993904;28;20042;-59
2023/03/13 10:10:04;;;;;;;9.18;6.07;;;;;;;;;;4994292;28;20046;-59
2023/03/13 10:12:41;;;;;;;7.90;5.95;;;;;;;;;;4993865;28;20460;-60
2023/03/13 10:15:27;;;;;;;7.95;5.63;;;;;;;;;;4993740;28;20133;-60
2023/03/13 10:17:54;;;;;;;11.38;6.13;;;;;;;;;;4993683;28;20050;-60
2023/03/13 10:20:27;;;;;;;6.75;5.80;;;;;;;;;;4993552;28;20050;-59
2023/03/13 10:23:02;;;;;;;10.27;5.57;;;;;;;;;;4993506;28;20436;-59
2023/03/13 10:25:32;;;;;;;10.30;5.18;;;;;;;;;;4993560;28;20101;-60
2023/03/13 10:28:00;;;;;;;7.32;5.88;;;;;;;;;;4993556;28;20042;-60
2023/03/13 10:30:34;;;;;;;9.23;5.28;;;;;;;;;;4993570;28;20046;-60
2023/03/13 10:33:07;;;;;;;6.72;5.00;;;;;;;;;;4993477;28;20489;-60
2023/03/13 10:35:37;;;;;;;7.60;5.13;;;;;;;;;;4993485;28;20121;-59
2023/03/13 10:38:08;;;;;;;6.38;5.55;;;;;;;;;;4993353;28;20046;-59
2023/03/13 10:40:36;;;;;;;6.32;5.20;;;;;;;;;;4993529;28;20054;-60
2023/03/13 10:43:03;;;;;;;7.45;5.53;;;;;;;;;;4993065;28;20073;-61
2023/03/13 10:45:34;;;;;;;7.72;4.78;;;;;;;;;;4993546;28;20408;-61
2023/03/13 10:48:12;;;;;;;7.38;4.85;;;;;;;;;;4993222;28;20053;-60
2023/03/13 10:50:45;;;;;;;6.70;4.68;;;;;;;;;;4993193;28;20499;-60
2023/03/13 10:53:30;;;;;;;7.68;5.13;;;;;;;;;;4993255;28;20069;-60
2023/03/13 10:55:57;;;;;;;;;;;;;;;;;;4993558;28;20552;-60
2023/03/13 10:58:34;;;;;;;12.27;5.45;;;;;;;;;;4993026;28;19926;-60
2023/03/13 11:01:23;;;;;;;5.25;4.50;;;;;;;;;;4991910;28;20073;-60
2023/03/13 11:03:51;;;;;;;9.90;4.43;;;;;;;;;;4993314;28;20052;-61
2023/03/13 11:06:24;;;;;;;7.80;4.80;;;;;;;;;;4993060;28;20038;-61
2023/03/13 11:09:12;;;;;;;7.45;5.22;;;;;;;;;;4993276;28;20126;-58
2023/03/13 11:11:47;;;;;;;9.88;5.35;;;;;;;;;;4975734;28;20097;-60
2023/03/13 11:14:14;;;;;;;;;;;;;;;;;;4993490;28;20133;-60
2023/03/13 11:16:46;;;;;;;6.28;4.53;;;;;;;;;;4993159;28;19922;-59
2023/03/13 11:19:14;;;;;;;6.28;4.25;;;;;;;;;;4979049;28;20050;-59
2023/03/13 11:21:44;;;;;;;4.97;4.00;;;;;;;;;;4996970;28;20492;-59
2023/03/13 11:24:15;;;;;;;6.50;4.13;;;;;;;;;;4997346;28;20052;-59
2023/03/13 11:26:48;;;;;;;4.43;3.65;;;;;;;;;;4996914;28;20077;-60
2023/03/13 11:29:33;;;;;;;4.10;3.65;;;;;;;;;;4996957;28;20046;-60
2023/03/13 11:32:04;;;;;;;5.05;3.92;;;;;;;;;;4996947;28;20038;-59
2023/03/13 11:34:39;;;;;;;4.78;3.90;;;;;;;;;;4996915;28;20034;-59
2023/03/13 11:37:14;;;;;;;5.90;4.28;;;;;;;;;;4996865;28;20069;-59
2023/03/13 11:39:42;;;;;;;;;;;;;;;;;;4997142;28;20070;-60
2023/03/13 11:42:10;;;;;;;5.20;4.00;;;;;;;;;;4996812;28;19968;-60
2023/03/13 11:44:54;;;;;;;7.03;4.35;;;;;;;;;;4996594;28;20093;-60
2023/03/13 11:47:33;;;;;;;8.90;4.40;;;;;;;;;;4996545;28;20057;-60
2023/03/13 11:50:13;;;;;;;4.70;3.72;;;;;;;;;;4996500;28;20492;-60
2023/03/13 11:52:59;;;;;;;4.80;3.80;;;;;;;;;;4995528;28;20051;-60
2023/03/13 11:55:33;;;;;;;5.15;3.70;;;;;;;;;;4996117;28;20049;-60
2023/03/13 11:58:03;;;;;;;6.05;3.95;;;;;;;;;;4996187;28;20054;-59
2023/03/13 12:00:31;;;;;;;9.23;4.05;;;;;;;;;;4996076;28;20475;-59
2023/03/13 12:03:04;;;;;;;7.30;4.40;;;;;;;;;;4996006;28;20050;-59
2023/03/13 12:05:42;;;;;;;6.07;4.38;;;;;;;;;;4995984;28;20121;-60
2023/03/13 12:08:12;;;;;;;4.38;3.80;;;;;;;;;;4996049;28;20049;-60
2023/03/13 12:10:43;;;;;;;5.15;4.03;;;;;;;;;;4996101;28;20046;-60
2023/03/13 12:13:19;;;;;;;6.68;4.30;;;;;;;;;;4995767;28;20511;-60
2023/03/13 12:15:49;;;;;;;8.35;5.97;;;;;;;;;;4995890;28;20066;-67
2023/03/13 12:18:19;;;;;;;7.68;6.85;;;;;;;;;;4978557;28;20546;-67
2023/03/13 12:20:58;;;;;;;4.93;3.97;;;;;;;;;;4994596;28;20077;-67
2023/03/13 12:23:28;;;;;;;6.20;3.80;;;;;;;;;;4995341;28;20396;-67
2023/03/13 12:26:00;;;;;;;4.70;3.78;;;;;;;;;;5003364;28;20068;-67
2023/03/13 12:28:27;;;;;;;5.55;3.70;;;;;;;;;;5014790;28;20528;-66
2023/03/13 12:31:04;;;;;;;5.22;3.50;;;;;;;;;;5014601;28;20475;-67
2023/03/13 12:33:35;;;;;;;4.45;3.47;;;;;;;;;;5004729;28;20093;-59
2023/03/13 12:36:07;;;;;;;5.43;3.40;;;;;;;;;;4995584;28;20049;-59
2023/03/13 12:38:40;;;;;;;5.82;3.88;;;;;;;;;;4994692;28;20049;-60
2023/03/13 12:41:12;;;;;;;4.95;4.03;;;;;;;;;;4994571;28;20378;-59
2023/03/13 12:43:42;;;;;;;8.02;3.78;;;;;;;;;;4995334;28;20448;-60
2023/03/13 12:46:18;;;;;;;5.10;3.45;;;;;;;;;;4995751;28;20117;-59
2023/03/13 12:48:46;;;;;;;8.75;4.35;;;;;;;;;;5010275;28;20051;-59
2023/03/13 12:51:43;;;;;;;5.00;4.20;;;;;;;;;;4995284;28;20444;-59
2023/03/13 12:54:10;;;;;;;4.78;3.65;;;;;;;;;;4983357;28;20105;-59
2023/03/13 12:56:56;;;;;;;5.28;3.70;;;;;;;;;;4995258;28;20126;-58
2023/03/13 12:59:33;;;;;;;7.65;3.78;;;;;;;;;;4995179;28;20042;-58
2023/03/13 13:02:02;;;;;;;6.00;3.75;;;;;;;;;;4995273;28;20133;-58
2023/03/13 13:04:41;;;;;;;4.72;3.90;;;;;;;;;;4995021;28;20419;-58
2023/03/13 13:07:25;;;;;;;5.57;3.90;;;;;;;;;;4995322;28;20057;-58
2023/03/13 13:10:02;;;;;;;8.80;3.83;;;;;;;;;;4995138;28;20046;-58
2023/03/13 13:12:29;;;;;;;4.75;3.83;;;;;;;;;;4994879;28;20525;-58
2023/03/13 13:14:58;;;;;;;7.57;5.57;;;;;;;;;;4977434;28;20089;-58
2023/03/13 13:17:29;;;;;;;7.00;4.25;;;;;;;;;;4994791;28;20436;-58
2023/03/13 13:19:56;;;;;;;5.18;4.10;;;;;;;;;;4994576;28;20082;-58
2023/03/13 13:22:36;;;;;;;4.88;3.53;;;;;;;;;;4994880;28;20105;-58
2023/03/13 13:25:04;;;;;;;5.78;3.25;;;;;;;;;;4994844;28;20420;-58
2023/03/13 13:27:31;;;;;;;4.22;3.42;;;;;;;;;;4994502;28;20085;-58
2023/03/13 13:30:00;;;;;;;3.35;2.92;;;;;;;;;;4994436;28;20588;-58
2023/03/13 13:32:30;;;;;;;6.03;3.50;;;;;;;;;;4994542;28;20484;-58
2023/03/13 13:35:01;;;;;;;4.72;3.75;;;;;;;;;;4994375;28;20042;-58
2023/03/13 13:37:29;;;;;;;4.38;3.67;;;;;;;;;;4994421;28;20042;-58
2023/03/13 13:40:09;;;;;;;5.15;3.63;;;;;;;;;;4993721;28;20073;-58
2023/03/13 13:42:42;;;;;;;5.63;3.65;;;;;;;;;;4994266;28;20428;-58
2023/03/13 13:45:15;;;;;;;5.75;3.70;;;;;;;;;;4994349;28;20477;-60
2023/03/13 13:47:44;;;;;;;6.20;3.90;;;;;;;;;;4994270;28;20125;-58
2023/03/13 13:50:18;;;;;;;4.93;3.63;;;;;;;;;;4994254;28;20046;-60
2023/03/13 13:52:47;;;;;;;5.80;3.90;;;;;;;;;;4994182;28;20065;-58
2023/03/13 13:55:26;;;;;;;4.75;3.83;;;;;;;;;;4994298;28;20432;-58
2023/03/13 13:58:04;;;;;;;7.20;3.58;;;;;;;;;;4994139;28;20109;-58
2023/03/13 14:00:46;;;;;;;5.50;3.50;;;;;;;;;;4994090;28;20053;-58
2023/03/13 14:03:18;;;;;;;6.88;3.72;;;;;;;;;;4993973;28;20137;-59
2023/03/13 14:05:47;;;;;;;6.10;3.95;;;;;;;;;;4994007;28;20050;-59
2023/03/13 14:08:21;;;;;;;6.72;3.83;;;;;;;;;;4993941;28;20443;-59
2023/03/13 14:10:52;;;;;;;5.28;3.60;;;;;;;;;;4994019;28;20095;-58
2023/03/13 14:13:20;;;;;;;4.20;3.53;;;;;;;;;;4993870;28;20042;-60
2023/03/13 14:15:48;;;;;;;4.80;3.60;;;;;;;;;;4993860;28;20038;-60
2023/03/13 14:18:29;;;;;;;5.90;3.90;;;;;;;;;;4994066;28;20050;-60
2023/03/13 14:21:01;;;;;;;7.97;3.90;;;;;;;;;;4993588;28;20050;-60
2023/03/13 14:23:42;;;;;;;9.70;3.90;;;;;;;;;;4993669;28;20145;-60
2023/03/13 14:26:10;;;;;;;4.47;3.60;;;;;;;;;;4993574;28;20500;-60
2023/03/13 14:28:42;;;;;;;5.25;3.70;;;;;;;;;;4993533;28;20444;-60
2023/03/13 14:31:10;;;;;;;5.00;3.78;;;;;;;;;;4993760;28;20046;-60
2023/03/13 14:33:38;;;;;;;4.68;3.80;;;;;;;;;;4993419;28;20089;-60
2023/03/13 14:36:06;;;;;;;5.25;3.75;;;;;;;;;;4993455;28;20058;-60
2023/03/13 14:38:34;;;;;;;4.85;3.80;;;;;;;;;;4993467;28;20492;-59
2023/03/13 14:41:01;;;;;;;6.65;3.58;;;;;;;;;;4993103;28;20035;-59
2023/03/13 14:43:29;;;;;;;3.70;3.30;;;;;;;;;;4986300;28;20098;-59
2023/03/13 14:45:57;;;;;;;6.15;3.85;;;;;;;;;;4993133;28;20034;-59
2023/03/13 14:48:30;;;;;;;5.35;3.85;;;;;;;;;;4993491;28;20477;-59
2023/03/13 14:51:08;;;;;;;5.13;3.50;;;;;;;;;;4993168;28;20499;-59
2023/03/13 14:53:59;;;;;;;4.50;3.85;;;;;;;;;;4993196;28;20096;-59
2023/03/13 14:56:34;;;;;;;6.25;4.93;;;;;;;;;;4993484;28;20052;-59
2023/03/13 14:59:01;;;;;;;;;;;;;;;;;;4992303;28;20050;-59
2023/03/13 15:01:29;;;;;;;4.78;3.65;;;;;;;;;;4992450;28;19980;-59